Time;durP1;ratioP1;P1;durP2;ratioP2;P2;SDS_P1;SDS_P2;PMS_P1;PMS_P2;Temp;Humidity;BMP_temperature;BMP_pressure;BME280_temperature;BME280_humidity;BME280_pressure;Samples;Min_cycle;Max_cycle;Signal;HPM_P1;HPM_P2
2021/06/11 00:00:15;;;;;;;6.63;5.20;;;;;;;16.57;94.25;97028.47;5032252;28;20707;-67
2021/06/11 00:02:41;;;;;;;7.43;6.30;;;;;;;16.55;93.83;97030.56;5015590;28;20550;-69
2021/06/11 00:05:07;;;;;;;6.40;5.28;;;;;;;16.48;94.22;97031.88;5031854;28;20179;-69
2021/06/11 00:07:33;;;;;;;6.88;5.40;;;;;;;16.56;93.58;97032.16;5033012;28;20710;-69
2021/06/11 00:10:00;;;;;;;7.22;5.88;;;;;;;16.53;93.88;97024.75;5014892;28;20203;-67
2021/06/11 00:12:25;;;;;;;6.72;5.72;;;;;;;16.50;93.91;97030.56;5032987;28;20214;-68
2021/06/11 00:14:50;;;;;;;5.97;5.38;;;;;;;16.59;92.96;97025.59;5033178;28;20264;-68
2021/06/11 00:17:16;;;;;;;6.88;5.82;;;;;;;16.52;92.97;97031.09;5032354;28;20207;-68
2021/06/11 00:19:41;;;;;;;5.88;5.38;;;;;;;16.48;93.00;97024.75;5033156;28;20295;-69
2021/06/11 00:22:07;;;;;;;5.60;5.10;;;;;;;16.48;92.59;97023.94;5032743;28;20194;-69
2021/06/11 00:24:32;;;;;;;6.03;5.43;;;;;;;16.57;92.20;97019.75;5032718;28;20198;-69
2021/06/11 00:26:58;;;;;;;6.32;5.65;;;;;;;16.71;90.91;97023.53;5031706;28;20580;-66
2021/06/11 00:29:23;;;;;;;6.38;5.78;;;;;;;16.71;90.47;97022.75;5014597;28;20273;-68
2021/06/11 00:31:49;;;;;;;5.82;5.20;;;;;;;16.66;90.82;97017.44;5014832;28;20194;-68
2021/06/11 00:34:14;;;;;;;6.32;4.88;;;;;;;16.65;90.73;97019.28;5031330;28;20234;-68
2021/06/11 00:36:40;;;;;;;6.72;5.90;;;;;;;16.70;90.20;97021.94;5031435;28;20194;-68
2021/06/11 00:39:06;;;;;;;7.47;5.95;;;;;;;16.77;89.53;97021.72;5031377;28;20179;-69
2021/06/11 00:41:32;;;;;;;6.30;5.70;;;;;;;16.78;90.03;97024.06;5032550;28;20261;-69
2021/06/11 00:43:57;;;;;;;6.85;6.25;;;;;;;16.65;90.49;97024.56;5032308;28;20189;-65
2021/06/11 00:46:23;;;;;;;6.15;5.55;;;;;;;16.61;90.69;97024.28;5031718;28;20202;-68
2021/06/11 00:48:48;;;;;;;5.85;5.25;;;;;;;16.55;91.16;97022.63;5032369;28;20275;-68
2021/06/11 00:51:13;;;;;;;5.82;5.30;;;;;;;16.51;91.47;97021.56;5031757;28;20186;-68
2021/06/11 00:53:40;;;;;;;5.38;4.88;;;;;;;16.53;91.55;97021.31;5032302;28;20182;-68
2021/06/11 00:56:05;;;;;;;7.07;5.22;;;;;;;16.51;91.77;97023.41;5031741;28;20293;-66
2021/06/11 00:58:30;;;;;;;6.43;5.72;;;;;;;16.55;91.50;97019.22;5032046;28;20620;-67
2021/06/11 01:00:56;;;;;;;6.13;5.47;;;;;;;16.60;91.20;97021.91;5014371;28;20183;-66
2021/06/11 01:03:21;;;;;;;6.00;5.40;;;;;;;16.42;92.63;97022.31;5030961;28;20187;-66
2021/06/11 01:05:47;;;;;;;8.95;6.05;;;;;;;16.54;92.33;97028.22;5031803;28;20615;-67
2021/06/11 01:08:15;;;;;;;6.10;5.53;;;;;;;16.40;93.06;97029.72;5031257;28;20194;-67
2021/06/11 01:10:43;;;;;;;6.35;5.75;;;;;;;16.32;93.60;97028.38;5031441;28;20359;-67
2021/06/11 01:13:12;;;;;;;6.57;5.60;;;;;;;16.23;94.08;97028.03;5031489;28;20190;-67
2021/06/11 01:15:38;;;;;;;7.82;6.22;;;;;;;16.24;94.51;97026.19;5031055;28;20206;-67
2021/06/11 01:18:04;;;;;;;7.10;5.78;;;;;;;16.15;94.98;97030.38;5030929;28;20225;-67
2021/06/11 01:20:30;;;;;;;6.85;6.15;;;;;;;16.27;94.34;97024.91;5031647;28;20229;-67
2021/06/11 01:23:20;;;;;;;6.50;5.90;;;;;;;16.12;95.34;97023.75;5014061;28;20193;-66
2021/06/11 01:26:20;;;;;;;6.65;6.05;;;;;;;16.19;95.17;97021.69;5027355;28;20206;-67
2021/06/11 01:28:46;;;;;;;5.88;5.38;;;;;;;16.10;96.05;97025.06;5024206;28;20240;-67
2021/06/11 01:31:12;;;;;;;7.57;6.07;;;;;;;16.01;96.64;97022.09;5031015;28;20217;-66
2021/06/11 01:33:38;;;;;;;7.05;6.35;;;;;;;16.07;96.13;97021.06;5030940;28;20629;-66
2021/06/11 01:36:09;;;;;;;6.80;5.85;;;;;;;16.12;96.00;97023.75;5029832;28;20601;-66
2021/06/11 01:38:44;;;;;;;8.70;6.70;;;;;;;16.27;94.80;97023.06;5031277;28;20531;-68
2021/06/11 01:41:15;;;;;;;7.25;6.55;;;;;;;16.22;94.89;97023.81;5012956;28;20285;-67
2021/06/11 01:43:41;;;;;;;6.90;6.20;;;;;;;16.10;95.99;97025.06;5030830;28;20186;-67
2021/06/11 01:46:12;;;;;;;10.10;6.60;;;;;;;16.12;95.04;97023.75;5030467;28;20191;-67
2021/06/11 01:48:39;;;;;;;7.70;6.70;;;;;;;16.08;95.58;97024.50;5031097;28;20542;-68
2021/06/11 01:51:07;;;;;;;8.98;6.40;;;;;;;16.02;95.92;97023.69;5030803;28;20201;-67
2021/06/11 01:53:35;;;;;;;6.72;6.00;;;;;;;16.13;94.89;97022.69;5030682;28;20501;-67
2021/06/11 01:56:02;;;;;;;8.43;6.93;;;;;;;16.14;94.67;97016.38;5030204;28;20195;-65
2021/06/11 01:58:27;;;;;;;7.90;6.70;;;;;;;16.05;95.50;97025.81;5030779;28;20621;-68
2021/06/11 02:00:54;;;;;;;6.60;5.85;;;;;;;16.01;95.85;97021.28;5030723;28;20178;-67
2021/06/11 02:03:22;;;;;;;7.20;6.32;;;;;;;15.97;95.78;97022.84;5030086;28;20199;-68
2021/06/11 02:05:49;;;;;;;7.25;5.57;;;;;;;15.99;95.92;97026.84;5030694;28;20198;-68
2021/06/11 02:08:16;;;;;;;7.90;7.10;;;;;;;16.11;94.95;97021.34;5030283;28;20186;-68
2021/06/11 02:10:43;;;;;;;7.25;6.22;;;;;;;16.11;94.61;97016.84;5030301;28;20232;-67
2021/06/11 02:13:09;;;;;;;6.78;6.07;;;;;;;16.04;95.01;97018.94;5029999;28;20652;-68
2021/06/11 02:15:35;;;;;;;7.22;6.25;;;;;;;15.98;95.65;97014.69;5031281;28;20202;-68
2021/06/11 02:18:02;;;;;;;7.65;6.95;;;;;;;16.02;95.14;97017.59;5030368;28;20190;-65
2021/06/11 02:20:28;;;;;;;7.80;7.00;;;;;;;16.01;95.29;97022.09;5030968;28;20324;-69
2021/06/11 02:22:54;;;;;;;7.00;6.30;;;;;;;16.08;94.61;97027.97;5030628;28;20548;-68
2021/06/11 02:25:24;;;;;;;7.00;6.20;;;;;;;16.08;94.56;97035.09;5029619;28;20190;-67
2021/06/11 02:27:49;;;;;;;7.40;6.70;;;;;;;15.89;95.89;97026.75;5030614;28;20222;-68
2021/06/11 02:30:19;;;;;;;7.03;6.32;;;;;;;15.86;96.03;97026.47;5030150;28;20178;-68
2021/06/11 02:32:45;;;;;;;8.82;6.30;;;;;;;15.78;96.65;97027.75;5023008;28;20217;-68
2021/06/11 02:35:19;;;;;;;8.00;6.70;;;;;;;15.74;96.96;97032.75;5029694;28;20183;-69
2021/06/11 02:37:46;;;;;;;8.00;7.10;;;;;;;15.66;97.57;97027.16;5022958;28;20181;-69
2021/06/11 02:40:13;;;;;;;6.60;5.93;;;;;;;15.79;96.80;97027.50;5030211;28;20182;-69
2021/06/11 02:42:39;;;;;;;7.18;6.47;;;;;;;15.64;97.75;97024.75;5030227;28;20291;-69
2021/06/11 02:45:11;;;;;;;7.70;6.88;;;;;;;15.63;97.97;97022.34;5030125;28;20178;-69
2021/06/11 02:47:46;;;;;;;7.20;6.50;;;;;;;15.57;98.21;97026.00;5030583;28;20636;-69
2021/06/11 02:50:19;;;;;;;7.10;6.40;;;;;;;15.49;98.92;97026.44;5029892;28;20215;-68
2021/06/11 02:52:47;;;;;;;7.10;6.38;;;;;;;15.40;99.06;97026.09;5030135;28;20170;-69
2021/06/11 02:55:16;;;;;;;7.60;6.82;;;;;;;15.43;99.56;97024.81;5029713;28;20303;-69
2021/06/11 02:58:00;;;;;;;7.05;6.35;;;;;;;15.46;99.13;97019.81;5030737;28;20548;-69
2021/06/11 03:00:29;;;;;;;8.73;7.72;;;;;;;15.59;97.99;97024.72;5029893;28;20175;-68
2021/06/11 03:03:03;;;;;;;9.23;7.40;;;;;;;15.49;98.62;97021.94;5030380;28;20187;-68
2021/06/11 03:05:29;;;;;;;8.13;6.90;;;;;;;15.36;99.35;97023.16;5029903;28;20277;-68
2021/06/11 03:07:57;;;;;;;8.90;7.57;;;;;;;15.35;99.54;97021.56;5030573;28;20194;-69
2021/06/11 03:10:29;;;;;;;7.63;6.72;;;;;;;15.30;99.63;97023.34;5012499;28;20183;-68
2021/06/11 03:12:58;;;;;;;8.68;7.70;;;;;;;15.32;99.80;97018.63;5031982;28;20177;-68
2021/06/11 03:15:26;;;;;;;9.23;7.53;;;;;;;15.38;98.93;97018.41;5015640;28;20293;-68
2021/06/11 03:17:55;;;;;;;9.82;7.88;;;;;;;15.31;99.11;97014.41;5034330;28;20187;-69
2021/06/11 03:20:25;;;;;;;8.80;7.40;;;;;;;15.28;99.28;97013.03;5033203;28;20182;-69
2021/06/11 03:22:57;;;;;;;8.77;7.75;;;;;;;15.31;98.85;97017.03;5034454;28;20190;-68
2021/06/11 03:25:28;;;;;;;8.13;7.30;;;;;;;15.37;98.90;97016.03;5033477;28;20178;-67
2021/06/11 03:27:58;;;;;;;11.20;8.07;;;;;;;15.31;99.12;97015.19;5033623;28;20178;-68
2021/06/11 03:30:27;;;;;;;7.93;7.13;;;;;;;15.28;99.58;97025.44;5015510;28;20205;-67
2021/06/11 03:32:57;;;;;;;8.40;7.50;;;;;;;15.36;99.06;97020.53;5033380;28;20667;-67
2021/06/11 03:35:48;;;;;;;8.15;7.32;;;;;;;15.34;98.92;97022.59;5032626;28;20204;-67
2021/06/11 03:38:17;;;;;;;7.97;7.17;;;;;;;15.47;97.63;97031.16;5032818;28;20193;-67
2021/06/11 03:40:45;;;;;;;8.98;7.82;;;;;;;15.47;97.83;97036.44;5033728;28;20185;-68
2021/06/11 03:43:11;;;;;;;9.20;7.73;;;;;;;15.53;97.44;97036.28;5033374;28;20198;-69
2021/06/11 03:45:40;;;;;;;11.17;8.53;;;;;;;15.48;97.77;97033.56;5033549;28;20620;-68
2021/06/11 03:48:08;;;;;;;7.93;7.13;;;;;;;15.36;97.92;97033.72;5033119;28;20182;-68
2021/06/11 03:50:35;;;;;;;9.00;6.90;;;;;;;15.46;97.29;97038.28;5033323;28;20257;-67
2021/06/11 03:53:04;;;;;;;7.27;6.57;;;;;;;15.28;98.07;97033.38;5032732;28;20189;-65
2021/06/11 03:55:34;;;;;;;9.10;6.20;;;;;;;15.34;97.49;97030.53;5033777;28;20203;-68
2021/06/11 03:58:05;;;;;;;8.97;6.80;;;;;;;15.31;97.69;97036.31;5033168;28;20182;-66
2021/06/11 04:00:32;;;;;;;6.93;6.22;;;;;;;15.37;97.33;97031.88;5033176;28;20214;-67
2021/06/11 04:03:00;;;;;;;7.17;6.13;;;;;;;15.58;96.01;97033.69;5032333;28;20278;-65
2021/06/11 04:05:25;;;;;;;6.80;6.20;;;;;;;15.68;95.10;97036.41;5032938;28;20304;-68
2021/06/11 04:07:53;;;;;;;7.65;6.30;;;;;;;15.69;94.97;97040.63;5033516;28;20648;-68
2021/06/11 04:10:27;;;;;;;6.70;6.00;;;;;;;15.82;93.73;97036.78;5032199;28;20178;-67
2021/06/11 04:12:54;;;;;;;7.07;6.38;;;;;;;15.93;93.14;97030.50;5024082;28;20228;-68
2021/06/11 04:15:20;;;;;;;7.88;6.25;;;;;;;15.88;92.91;97038.41;5031843;28;20228;-67
2021/06/11 04:18:01;;;;;;;8.38;6.20;;;;;;;15.82;93.62;97041.28;5032204;28;20604;-65
2021/06/11 04:20:28;;;;;;;6.35;5.63;;;;;;;16.08;91.64;97035.09;5015593;28;20554;-66
2021/06/11 04:22:57;;;;;;;7.43;5.90;;;;;;;16.12;91.18;97041.47;5032522;28;20183;-66
2021/06/11 04:25:28;;;;;;;6.45;5.85;;;;;;;16.22;90.38;97039.66;5031612;28;20183;-66
2021/06/11 04:27:54;;;;;;;6.07;5.47;;;;;;;16.33;89.42;97047.69;5032212;28;20174;-66
2021/06/11 04:30:20;;;;;;;6.13;5.53;;;;;;;16.56;87.91;97034.03;5031634;28;20252;-66
2021/06/11 04:32:45;;;;;;;5.57;5.07;;;;;;;16.56;87.22;97044.59;5032192;28;20186;-66
2021/06/11 04:35:12;;;;;;;5.95;5.28;;;;;;;16.87;85.55;97041.06;5031285;28;20546;-65
2021/06/11 04:37:38;;;;;;;5.60;5.10;;;;;;;16.80;84.86;97050.31;5032263;28;20224;-67
2021/06/11 04:40:07;;;;;;;6.40;4.60;;;;;;;16.54;86.30;97044.09;5031890;28;20190;-66
2021/06/11 04:42:34;;;;;;;4.70;4.30;;;;;;;16.68;84.81;97047.06;5031229;28;20189;-66
2021/06/11 04:45:00;;;;;;;5.85;4.90;;;;;;;16.68;84.57;97049.72;5031637;28;20190;-64
2021/06/11 04:47:27;;;;;;;6.40;5.25;;;;;;;16.79;84.66;97060.09;5031447;28;20183;-66
2021/06/11 04:49:53;;;;;;;5.75;5.25;;;;;;;17.01;83.38;97059.91;5015008;28;20192;-65
2021/06/11 04:52:18;;;;;;;5.80;5.22;;;;;;;17.03;83.12;97050.66;5031805;28;20262;-67
2021/06/11 04:54:43;;;;;;;5.32;4.93;;;;;;;17.21;82.69;97057.31;5032410;28;20236;-66
2021/06/11 04:57:09;;;;;;;5.38;4.88;;;;;;;17.32;81.72;97058.13;5031529;28;20214;-66
2021/06/11 04:59:34;;;;;;;6.10;5.50;;;;;;;17.49;81.30;97063.19;5031923;28;20682;-66
2021/06/11 05:02:00;;;;;;;4.80;4.40;;;;;;;17.60;80.27;97056.88;5031358;28;20175;-64
2021/06/11 05:04:25;;;;;;;4.85;4.45;;;;;;;17.91;78.63;97055.00;5013321;28;20183;-66
2021/06/11 05:06:51;;;;;;;5.05;4.55;;;;;;;18.00;78.11;97056.09;5032324;28;20265;-68
2021/06/11 05:09:16;;;;;;;5.57;4.65;;;;;;;18.17;77.01;97061.88;5031018;28;20179;-66
2021/06/11 05:11:42;;;;;;;4.40;4.00;;;;;;;18.18;76.69;97066.13;5031758;28;20225;-67
2021/06/11 05:14:07;;;;;;;4.68;4.28;;;;;;;18.20;76.58;97064.81;5031165;28;20538;-67
2021/06/11 05:16:33;;;;;;;4.53;4.10;;;;;;;18.19;76.64;97073.03;5031163;28;20628;-67
2021/06/11 05:18:58;;;;;;;4.93;4.45;;;;;;;18.50;75.40;97063.91;5013835;28;20190;-65
2021/06/11 05:21:24;;;;;;;4.72;4.25;;;;;;;18.47;75.86;97066.31;5030457;28;20183;-67
2021/06/11 05:23:49;;;;;;;4.75;4.10;;;;;;;18.57;75.88;97066.31;5031993;28;20256;-67
2021/06/11 05:26:14;;;;;;;5.25;4.75;;;;;;;18.90;74.33;97070.19;5030795;28;20179;-67
2021/06/11 05:28:40;;;;;;;4.45;4.05;;;;;;;19.07;73.45;97070.63;5031780;28;20593;-67
2021/06/11 05:31:05;;;;;;;4.43;3.95;;;;;;;19.28;72.80;97069.47;5030828;28;20190;-67
2021/06/11 05:33:31;;;;;;;4.47;4.07;;;;;;;19.38;72.22;97069.41;5031024;28;20251;-66
2021/06/11 05:35:56;;;;;;;4.93;4.07;;;;;;;19.34;72.10;97067.56;5012617;28;20195;-66
2021/06/11 05:38:22;;;;;;;4.50;4.10;;;;;;;19.36;72.18;97073.41;5030746;28;20170;-66
2021/06/11 05:40:47;;;;;;;5.10;4.60;;;;;;;19.73;71.37;97081.69;5013850;28;20205;-66
2021/06/11 05:43:13;;;;;;;4.57;4.18;;;;;;;19.75;71.13;97071.56;5030989;28;20223;-66
2021/06/11 05:45:39;;;;;;;5.25;4.75;;;;;;;19.96;70.75;97074.06;5031006;28;20198;-66
2021/06/11 05:48:05;;;;;;;4.60;4.18;;;;;;;20.20;70.03;97075.72;5030625;28;20581;-65
2021/06/11 05:50:31;;;;;;;4.43;4.03;;;;;;;20.09;69.83;97070.78;5031360;28;20186;-65
2021/06/11 05:52:56;;;;;;;4.32;3.92;;;;;;;20.29;69.65;97074.03;5030924;28;20189;-66
2021/06/11 05:55:22;;;;;;;4.78;4.28;;;;;;;20.36;69.58;97075.59;5030141;28;20193;-65
2021/06/11 05:57:48;;;;;;;4.80;4.40;;;;;;;20.21;70.03;97074.66;5031256;28;20210;-66
2021/06/11 06:00:13;;;;;;;4.78;4.38;;;;;;;20.36;69.57;97067.59;5030032;28;20265;-66
2021/06/11 06:02:40;;;;;;;5.03;4.60;;;;;;;20.41;69.95;97073.69;5030170;28;20187;-66
2021/06/11 06:05:06;;;;;;;5.10;4.70;;;;;;;20.34;69.82;97076.66;5029472;28;20309;-67
2021/06/11 06:07:34;;;;;;;5.63;4.72;;;;;;;20.74;69.41;97066.66;5031181;28;20182;-67
2021/06/11 06:10:00;;;;;;;6.28;5.68;;;;;;;21.05;67.88;97067.88;5030973;28;20179;-63
2021/06/11 06:12:25;;;;;;;6.95;5.85;;;;;;;21.33;66.69;97071.53;5030466;28;20204;-66
2021/06/11 06:14:50;;;;;;;6.60;5.50;;;;;;;21.53;66.38;97073.91;5030985;28;20261;-64
2021/06/11 06:17:16;;;;;;;6.18;4.80;;;;;;;21.80;65.36;97067.88;5029563;28;20624;-66
2021/06/11 06:19:43;;;;;;;5.60;4.70;;;;;;;22.02;64.44;97069.97;5030985;28;20186;-66
2021/06/11 06:22:10;;;;;;;5.60;5.10;;;;;;;22.32;62.89;97069.44;5030123;28;20175;-65
2021/06/11 06:24:36;;;;;;;6.10;5.60;;;;;;;22.48;62.26;97079.84;5030564;28;20195;-65
2021/06/11 06:27:01;;;;;;;5.72;5.22;;;;;;;22.60;62.03;97075.59;5030758;28;20182;-64
2021/06/11 06:29:27;;;;;;;7.18;5.30;;;;;;;22.80;61.86;97067.22;5030111;28;20321;-66
2021/06/11 06:31:52;;;;;;;5.43;4.93;;;;;;;22.95;61.38;97071.47;5013346;28;20590;-66
2021/06/11 06:34:19;;;;;;;6.07;5.05;;;;;;;23.07;60.79;97070.97;5029398;28;20222;-66
2021/06/11 06:36:44;;;;;;;5.55;5.05;;;;;;;22.98;60.61;97070.88;5029943;28;20668;-66
2021/06/11 06:39:10;;;;;;;5.70;5.13;;;;;;;23.04;60.57;97074.22;5029817;28;20187;-66
2021/06/11 06:41:36;;;;;;;4.82;4.40;;;;;;;23.18;59.91;97075.78;5012080;28;20187;-65
2021/06/11 06:44:03;;;;;;;7.03;4.80;;;;;;;23.45;58.93;97076.84;5029982;28;20608;-64
2021/06/11 06:46:29;;;;;;;5.28;4.70;;;;;;;23.65;58.26;97084.41;5012548;28;20199;-66
2021/06/11 06:48:55;;;;;;;6.20;4.80;;;;;;;23.39;60.33;97073.47;5034132;28;20196;-66
2021/06/11 06:51:23;;;;;;;5.43;4.93;;;;;;;23.41;59.55;97081.97;5032597;28;20187;-66
2021/06/11 06:53:49;;;;;;;6.10;5.50;;;;;;;23.40;60.91;97068.94;5032730;28;20193;-65
2021/06/11 06:56:14;;;;;;;5.50;5.00;;;;;;;23.61;61.17;97081.56;5025821;28;20564;-66
2021/06/11 06:58:39;;;;;;;5.97;5.32;;;;;;;23.35;61.75;97077.06;5028541;28;20194;-63
2021/06/11 07:01:05;;;;;;;6.57;5.53;;;;;;;23.14;61.84;97072.13;5021960;28;20261;-63
2021/06/11 07:03:31;;;;;;;6.00;5.40;;;;;;;23.31;61.79;97082.22;5026578;28;20597;-66
2021/06/11 07:05:59;;;;;;;6.95;5.32;;;;;;;22.54;63.76;97089.34;5029302;28;20195;-65
2021/06/11 07:08:30;;;;;;;6.07;5.47;;;;;;;22.67;64.49;97083.25;5032732;28;20270;-65
2021/06/11 07:10:56;;;;;;;6.90;5.68;;;;;;;22.49;64.53;97081.44;5033706;28;20210;-65
2021/06/11 07:13:21;;;;;;;6.18;5.55;;;;;;;22.34;65.34;97085.97;5032858;28;20705;-65
2021/06/11 07:15:46;;;;;;;6.88;6.20;;;;;;;22.31;65.24;97083.88;5034066;28;20234;-65
2021/06/11 07:18:12;;;;;;;5.82;5.22;;;;;;;22.59;66.11;97089.25;5032789;28;20277;-65
2021/06/11 07:20:37;;;;;;;10.90;5.18;;;;;;;22.99;64.23;97082.38;5033600;28;20216;-64
2021/06/11 07:23:03;;;;;;;5.57;5.00;;;;;;;23.28;62.85;97090.84;5032260;28;20200;-63
2021/06/11 07:25:28;;;;;;;5.85;5.25;;;;;;;23.31;62.50;97087.56;5037184;28;20225;-65
2021/06/11 07:27:54;;;;;;;5.40;4.90;;;;;;;23.04;63.06;97085.72;5033468;28;20647;-64
2021/06/11 07:30:19;;;;;;;5.13;4.63;;;;;;;22.86;64.05;97094.63;5032701;28;20194;-64
2021/06/11 07:32:45;;;;;;;5.63;5.10;;;;;;;22.66;64.69;97087.78;5033471;28;20285;-65
2021/06/11 07:35:13;;;;;;;5.50;5.00;;;;;;;22.57;65.25;97086.88;5031632;28;20259;-65
2021/06/11 07:37:38;;;;;;;7.35;5.53;;;;;;;22.59;64.62;97090.06;5015854;28;20187;-65
2021/06/11 07:40:05;;;;;;;5.40;4.90;;;;;;;22.91;64.04;97083.84;5033278;28;20186;-63
2021/06/11 07:42:30;;;;;;;5.43;4.93;;;;;;;22.92;63.97;97093.44;5033318;28;20182;-64
2021/06/11 07:44:56;;;;;;;4.85;4.45;;;;;;;22.99;63.56;97085.84;5033882;28;20651;-65
2021/06/11 07:47:21;;;;;;;5.85;4.57;;;;;;;22.90;63.74;97086.84;5032387;28;20197;-65
2021/06/11 07:49:46;;;;;;;5.32;4.82;;;;;;;22.61;64.69;97103.13;5033632;28;20336;-65
2021/06/11 07:52:12;;;;;;;4.40;4.00;;;;;;;23.35;62.44;97093.13;5032222;28;20186;-66
2021/06/11 07:54:37;;;;;;;6.53;5.13;;;;;;;23.41;61.42;97086.53;5032393;28;20186;-65
2021/06/11 07:57:03;;;;;;;5.43;4.45;;;;;;;23.55;61.15;97090.81;5031934;28;20206;-64
2021/06/11 07:59:28;;;;;;;4.55;4.15;;;;;;;23.79;60.42;97087.06;5031345;28;20187;-65
2021/06/11 08:01:54;;;;;;;4.70;4.30;;;;;;;23.83;60.85;97090.69;5033030;28;20187;-65
2021/06/11 08:04:19;;;;;;;5.93;5.00;;;;;;;23.39;61.99;97086.06;5031169;28;20269;-65
2021/06/11 08:06:47;;;;;;;10.02;4.13;;;;;;;23.56;60.70;97089.72;5032444;28;20220;-65
2021/06/11 08:09:12;;;;;;;5.63;4.93;;;;;;;23.73;58.81;97085.59;5031432;28;20193;-65
2021/06/11 08:11:38;;;;;;;5.15;4.55;;;;;;;23.77;59.59;97083.88;5033225;28;20183;-65
2021/06/11 08:14:03;;;;;;;5.15;4.65;;;;;;;23.76;60.34;97080.41;5034664;28;20198;-67
2021/06/11 08:16:29;;;;;;;5.03;4.55;;;;;;;23.69;59.22;97077.34;5014013;28;20206;-66
2021/06/11 08:18:54;;;;;;;5.20;4.80;;;;;;;23.48;58.89;97084.28;5031198;28;20632;-65
2021/06/11 08:21:20;;;;;;;5.63;5.13;;;;;;;23.73;58.11;97080.25;5031897;28;20198;-67
2021/06/11 08:23:46;;;;;;;5.38;4.88;;;;;;;23.56;57.00;97088.94;5014765;28;20198;-66
2021/06/11 08:26:12;;;;;;;5.45;5.05;;;;;;;23.79;57.45;97092.41;5031804;28;20188;-67
2021/06/11 08:28:37;;;;;;;5.60;5.10;;;;;;;23.89;57.26;97092.16;5032487;28;20331;-67
2021/06/11 08:31:03;;;;;;;5.43;4.93;;;;;;;24.02;55.91;97088.63;5032600;28;20189;-67
2021/06/11 08:33:29;;;;;;;6.38;5.32;;;;;;;24.02;55.96;97091.28;5031666;28;20235;-63
2021/06/11 08:35:54;;;;;;;6.95;6.05;;;;;;;23.75;55.80;97086.06;5014049;28;20199;-63
2021/06/11 08:38:20;;;;;;;5.63;5.00;;;;;;;23.89;56.08;97089.50;5031821;28;20195;-63
2021/06/11 08:40:46;;;;;;;6.20;5.38;;;;;;;23.70;56.83;97092.34;5028566;28;20189;-65
2021/06/11 08:43:15;;;;;;;6.22;5.60;;;;;;;23.58;56.30;97089.41;5030815;28;20253;-66
2021/06/11 08:45:42;;;;;;;5.43;4.93;;;;;;;23.53;56.86;97098.34;5031768;28;20209;-65
2021/06/11 08:48:07;;;;;;;6.05;5.55;;;;;;;23.43;57.49;97097.75;5013651;28;20237;-64
2021/06/11 08:50:35;;;;;;;8.25;5.53;;;;;;;23.79;56.61;97089.75;5032343;28;20216;-64
2021/06/11 08:53:03;;;;;;;6.18;5.50;;;;;;;23.49;56.24;97089.34;5031978;28;20183;-65
2021/06/11 08:55:29;;;;;;;6.03;5.53;;;;;;;23.54;56.81;97086.53;5031165;28;20568;-67
2021/06/11 08:57:55;;;;;;;5.32;4.82;;;;;;;23.81;57.17;97088.31;5032039;28;20197;-65
2021/06/11 09:00:22;;;;;;;5.15;4.70;;;;;;;23.85;57.18;97083.16;5031331;28;20186;-67
2021/06/11 09:03:19;;;;;;;5.30;4.80;;;;;;;24.41;55.78;97080.69;5031178;28;20308;-66
2021/06/11 09:06:05;;;;;;;5.25;4.75;;;;;;;24.08;55.87;97081.25;5021191;28;20190;-66
2021/06/11 09:08:31;;;;;;;5.32;4.82;;;;;;;24.41;55.93;97078.00;5031011;28;20178;-65
2021/06/11 09:11:12;;;;;;;6.47;5.88;;;;;;;23.96;55.94;97087.19;5031682;28;20189;-66
2021/06/11 09:13:41;;;;;;;6.57;5.40;;;;;;;24.19;56.51;97087.97;5031921;28;20265;-66
2021/06/11 09:16:20;;;;;;;7.15;5.53;;;;;;;24.34;56.67;97087.59;5013844;28;20203;-65
2021/06/11 09:18:56;;;;;;;6.38;5.60;;;;;;;24.18;54.94;97087.19;5031681;28;20178;-66
2021/06/11 09:21:25;;;;;;;5.82;5.30;;;;;;;24.16;54.98;97092.03;5013596;28;20189;-66
2021/06/11 09:24:15;;;;;;;6.50;5.75;;;;;;;24.09;54.94;97086.31;5031353;28;20209;-64
2021/06/11 09:26:41;;;;;;;6.40;5.07;;;;;;;24.37;55.29;97092.34;5009000;28;20281;-67
2021/06/11 09:29:20;;;;;;;5.85;5.35;;;;;;;24.40;52.80;97081.00;5030900;28;20189;-63
2021/06/11 09:31:46;;;;;;;6.15;5.65;;;;;;;24.29;52.72;97079.69;5031092;28;20669;-66
2021/06/11 09:34:25;;;;;;;6.53;5.93;;;;;;;24.08;53.03;97082.03;5033397;28;20312;-64
2021/06/11 09:37:09;;;;;;;6.40;5.60;;;;;;;24.42;53.42;97079.59;5030868;28;20263;-66
2021/06/11 09:39:46;;;;;;;7.55;4.88;;;;;;;24.73;54.50;97079.59;5030939;28;20183;-64
2021/06/11 09:42:14;;;;;;;6.05;5.45;;;;;;;24.36;54.39;97080.81;5030191;28;20258;-65
2021/06/11 09:44:41;;;;;;;5.70;5.03;;;;;;;24.59;53.56;97080.75;5031231;28;20252;-67
2021/06/11 09:47:06;;;;;;;6.00;5.40;;;;;;;24.54;50.78;97079.00;5031506;28;20190;-66
2021/06/11 09:49:44;;;;;;;6.28;5.68;;;;;;;24.56;49.37;97079.50;5012504;28;20194;-64
2021/06/11 09:52:10;;;;;;;5.57;5.07;;;;;;;24.61;49.71;97079.38;5031080;28;20171;-64
2021/06/11 09:54:36;;;;;;;6.55;6.00;;;;;;;24.33;50.70;97070.72;5031066;28;20609;-65
2021/06/11 09:57:21;;;;;;;6.45;5.85;;;;;;;24.52;49.36;97075.09;5030643;28;20659;-64
2021/06/11 09:59:47;;;;;;;6.07;5.40;;;;;;;24.73;47.06;97076.09;5010692;28;20562;-66
2021/06/11 10:02:16;;;;;;;8.18;5.85;;;;;;;24.73;47.15;97071.53;5029815;28;20616;-65
2021/06/11 10:04:43;;;;;;;7.65;6.43;;;;;;;24.38;47.43;97081.31;5030338;28;20182;-65
2021/06/11 10:07:12;;;;;;;7.00;6.30;;;;;;;24.43;45.06;97075.03;5030555;28;20174;-65
2021/06/11 10:09:39;;;;;;;6.70;5.72;;;;;;;24.25;49.48;97071.47;5028551;28;20670;-65
2021/06/11 10:12:06;;;;;;;6.55;5.95;;;;;;;24.50;49.00;97071.91;5013482;28;20189;-65
2021/06/11 10:14:33;;;;;;;6.28;5.65;;;;;;;24.03;49.34;97074.13;5029924;28;20375;-65
2021/06/11 10:16:59;;;;;;;5.68;5.18;;;;;;;24.44;49.77;97073.94;5031060;28;20206;-66
2021/06/11 10:19:25;;;;;;;6.25;5.63;;;;;;;24.26;50.06;97065.00;5011990;28;20662;-63
2021/06/11 10:21:51;;;;;;;5.80;5.20;;;;;;;24.68;49.43;97065.53;5032887;28;20217;-64
2021/06/11 10:24:19;;;;;;;5.65;5.15;;;;;;;24.89;48.28;97068.44;5036431;28;20539;-64
2021/06/11 10:26:45;;;;;;;5.65;5.15;;;;;;;24.48;46.76;97066.84;5036755;28;20190;-66
2021/06/11 10:29:16;;;;;;;5.45;4.95;;;;;;;24.53;47.25;97068.59;5036590;28;20265;-64
2021/06/11 10:31:42;;;;;;;6.68;5.38;;;;;;;24.59;46.83;97059.31;5037309;28;20186;-65
2021/06/11 10:34:07;;;;;;;6.10;5.05;;;;;;;24.65;47.28;97058.88;5036570;28;20225;-64
2021/06/11 10:36:38;;;;;;;6.05;5.55;;;;;;;24.62;46.76;97061.41;5036216;28;20206;-64
2021/06/11 10:39:09;;;;;;;5.78;5.18;;;;;;;25.02;46.31;97057.59;5037549;28;20186;-64
2021/06/11 10:41:55;;;;;;;6.25;5.72;;;;;;;24.92;44.97;97059.78;5036258;28;20190;-65
2021/06/11 10:44:43;;;;;;;5.85;5.35;;;;;;;24.63;45.03;97058.38;5020680;28;20571;-64
2021/06/11 10:47:17;;;;;;;5.50;5.00;;;;;;;24.63;46.58;97054.94;5037698;28;20174;-64
2021/06/11 10:49:58;;;;;;;6.97;6.28;;;;;;;24.66;44.78;97055.09;5037038;28;20205;-64
2021/06/11 10:52:42;;;;;;;6.35;5.70;;;;;;;24.33;46.00;97051.97;5036591;28;20564;-65
2021/06/11 10:55:16;;;;;;;6.93;5.78;;;;;;;24.48;45.30;97053.44;5037253;28;20265;-65
2021/06/11 10:57:44;;;;;;;6.53;5.28;;;;;;;24.75;44.23;97050.53;5036674;28;20224;-65
2021/06/11 11:00:28;;;;;;;5.30;4.80;;;;;;;25.01;44.34;97058.72;5036732;28;20186;-65
2021/06/11 11:02:57;;;;;;;5.03;4.63;;;;;;;24.81;44.47;97054.66;5032750;28;20702;-65
2021/06/11 11:05:26;;;;;;;6.05;5.35;;;;;;;24.80;44.43;97045.03;5035738;28;20189;-65
2021/06/11 11:07:52;;;;;;;5.18;4.68;;;;;;;25.23;44.39;97039.00;5037256;28;20186;-65
2021/06/11 11:10:42;;;;;;;6.20;5.60;;;;;;;25.55;43.62;97043.91;5036245;28;20527;-65
2021/06/11 11:13:14;;;;;;;5.53;5.03;;;;;;;26.07;42.40;97035.81;5018782;28;20298;-65
2021/06/11 11:15:46;;;;;;;5.10;4.60;;;;;;;26.38;41.97;97044.44;5036311;28;20206;-65
2021/06/11 11:18:23;;;;;;;4.97;4.57;;;;;;;26.31;42.06;97037.97;5036542;28;20193;-64
2021/06/11 11:20:49;;;;;;;5.55;5.05;;;;;;;26.27;41.49;97037.06;5036773;28;20208;-64
2021/06/11 11:23:20;;;;;;;5.72;5.22;;;;;;;25.65;42.10;97035.56;5018378;28;20193;-64
2021/06/11 11:25:47;;;;;;;5.97;4.97;;;;;;;25.69;42.38;97033.03;5020938;28;20186;-65
2021/06/11 11:28:13;;;;;;;5.88;5.38;;;;;;;25.88;41.83;97041.53;5036657;28;20186;-64
2021/06/11 11:30:40;;;;;;;5.40;5.00;;;;;;;25.84;42.65;97029.06;5036787;28;20190;-65
2021/06/11 11:33:08;;;;;;;7.05;6.22;;;;;;;25.96;42.44;97029.22;5035044;28;20581;-65
2021/06/11 11:35:36;;;;;;;6.22;5.63;;;;;;;25.48;43.14;97024.00;5031481;28;20197;-64
2021/06/11 11:38:05;;;;;;;6.30;5.70;;;;;;;25.78;42.18;97025.75;5033208;28;20186;-64